YSSYYMHB

Guest
Details From YSSY - Sydney Intl
To YMHB - Hobart
Flight Number -
Tags Generated
Created
Modified
Stats Distance 561 nm / 1,038 km
Max Altitude 0 ft / 0 m
Waypoints 3
Social Downloads 11
Likes 0
Share VATSIM

Download

Looking for another format? Having issues loading an existing format? Contact us
Advertisement - Login to hide

Notes

Generated

Route

YSSY MHBEH YMHB

ID Type Via Altitude Latitude Longitude Leg Dist Tot Dist Heading (true) Name
O YSSY APT - 0 ft / 0 m -33.94962˚ 151.18832˚ - 0 nm - -
MHBEH FIX - 0 ft / 0 m -42.81535˚ 147.50828˚ 559 nm 559 nm 197° / 199° -
O YMHB APT - 0 ft / 0 m -42.82898˚ 147.50206˚ 0 nm 560 nm 199° / 199° -

Altitude Profile

Advertisement - Login to hide

Weather


0- 5 10 15 20 25 30 35+ Temperature / ° C

Clouds and Precipitation
Forecast for 2018-05-23 06:00 UTC. Updated an hour ago

Ground ~20,000 ft ~40,000 ft Winds

YSSY

Details ICAO YSSY (SYD)
Name Sydney Intl
Region Australia
Timezone Australia/Sydney (UTC+10.0)
Stats Elevation 21 ft / 6 m (AMSL)
Location -33.949273° 151.181347°
Runways 3
Magnetic Variation 12.604° E

METAR

YSSY 230600Z 06010KT CAVOK 19/12 Q1022 NOSIG

Decode

TAF

TAF YSSY 230504Z 2306/2412 06008KT 9999 FEW035 FM231100 29008KT CAVOK FM232100 22010KT 9999 BKN020 FM240200 16015KT 9999 SCT020 FM240600 18015KT 9999 SCT030

Decode

Departure Runways

ID Width Length Bearing (true) Bearing (mag) Surface Threshold Offset Overrun Length
07 148 ft / 45 m 8,285 ft / 2,525 m 74.13° 61.53° Asphalt 0 ft / 0 m 0 ft / 0 m
16L 148 ft / 45 m 8,018 ft / 2,444 m 167.81° 155.21° Asphalt 758 ft / 231 m 0 ft / 0 m
16R 148 ft / 45 m 13,033 ft / 3,973 m 167.86° 155.26° Asphalt 279 ft / 85 m 0 ft / 0 m
25 148 ft / 45 m 8,285 ft / 2,525 m 254.12° 241.52° Asphalt 324 ft / 99 m 0 ft / 0 m
34L 148 ft / 45 m 13,033 ft / 3,973 m 347.85° 335.25° Asphalt 0 ft / 0 m 0 ft / 0 m
34R 148 ft / 45 m 8,018 ft / 2,444 m 347.81° 335.21° Asphalt 125 ft / 38 m 0 ft / 0 m

YMHB

Details ICAO YMHB (HBA)
Name Hobart
Region Australia
Timezone Australia/Hobart (UTC+10.0)
Stats Elevation 12 ft / 4 m (AMSL)
Location -42.836167° 147.511798°
Runways 1
Magnetic Variation 15.114° E

METAR

YMHB 230600Z 28014KT 9999 FEW045 16/03 Q1015

Decode

TAF

TAF AMD YMHB 230438Z 2304/2406 29018G30KT 9999 FEW045 FM230800 29014G24KT 9999 FEW030 FM231200 27010KT 9999 FEW030 FM240000 24014KT 9999 FEW045

Decode

Destination Runways

ID Width Length Bearing (true) Bearing (mag) Surface Threshold Offset Overrun Length
12 148 ft / 45 m 7,379 ft / 2,249 m 135.11° 120.00° Asphalt 0 ft / 0 m 0 ft / 0 m
30 148 ft / 45 m 7,379 ft / 2,249 m 315.09° 299.98° Asphalt 0 ft / 0 m 0 ft / 0 m

Approach Navaids

Runway Type Ident Frequency Range Bearing (true) Bearing (mag) Slope Elevation
12 Localiser IHB 109.90 MHz 18 nm / 33 km 135.13° 120.02° - 12 ft / 4 m (AMSL)
12 Glidescope IHB 109.90 MHz 10 nm / 19 km 135.10° 119.99° 3.00° 12 ft / 4 m (AMSL)

Popular Alternatives